• Join FlightAware (Why Join?)
  • Login
  • US Flag 
04:54PM EDT


 

Airport Tracker/Info


-or-


 

Live Flight TrackerFlight Track Log ✈ EJA583 ✈ 14-Jul-2013 ✈ KEGE - KVNY

Flight Track Log - Related Links

Times and Time Zones

All times are in EDT time to prevent confusion due to time zone crossing. See the EJA583 flight status page for this flight to view local times or setup timezone preferences in your user account.

Time Position Orientation Groundspeed Altitude Reporting Facility
EDT Latitude Longitude Course Direction KTS MPH feet Rate Location/Type
12:48PM 39.5981 -107.0161 237° Southwest 210 242 11,100  Level Denver Center
12:49PM 39.6675 -107.0475 341° North 232 267 14,400 1,860 Climbing Denver Center
12:50PM 39.7047 -107.1381 298° West 293 337 15,000 1,020 Climbing Denver Center
12:51PM 39.9690 -106.4566 30° Northeast  Level FlightAware Approximate
12:51PM 39.6789 -107.2433 252° West 335 386 16,600  Level Denver Center
12:52PM 39.9744 -106.4890 242° Southwest  Level FlightAware Approximate
12:52PM 39.6283 -107.3600 241° Southwest 332 382 18,900  Level Denver Center
12:53PM 39.5814 -107.4592 238° Southwest 335 386 20,800 1,980 Climbing Denver Center
12:54PM 39.5244 -107.5767 238° Southwest 342 394 23,100 1,920 Climbing Denver Center
12:55PM 39.4792 -107.6767 240° Southwest 338 389 24,800 1,740 Climbing Denver Center
12:56PM 39.4239 -107.7947 239° Southwest 341 392 26,800 1,680 Climbing Denver Center
12:57PM 39.3756 -107.8969 239° Southwest 346 398 28,300 1,500 Climbing Denver Center
12:58PM 39.3181 -108.0158 238° Southwest 349 402 30,000 1,500 Climbing Denver Center
12:59PM 39.2700 -108.1208 239° Southwest 352 405 31,500 1,500 Climbing Denver Center
01:00PM 39.2167 -108.2442 241° Southwest 352 405 33,200 1,500 Climbing Denver Center
01:01PM 39.1711 -108.3494 241° Southwest 349 402 34,700 1,380 Climbing Denver Center
01:02PM 39.1197 -108.4542 238° Southwest 361 415 36,100 1,380 Climbing Denver Center
01:03PM 39.0625 -108.5767 239° Southwest 360 414 37,600 1,200 Climbing Denver Center
01:04PM 39.0094 -108.6811 237° Southwest 364 419 38,600 960 Climbing Denver Center
01:05PM 38.9469 -108.8042 237° Southwest 366 421 39,700 660 Climbing Denver Center
01:06PM 38.8928 -108.9153 238° Southwest 380 437 40,000 120 Climbing Denver Center
01:07PM 38.8247 -109.0492 237° Southwest 400 460 40,000  Level Denver Center
01:08PM 38.7664 -109.1675 238° Southwest 408 470 40,000  Level Denver Center
01:09PM 38.6994 -109.3058 238° Southwest 409 471 40,000  Level Denver Center
01:10PM 38.6453 -109.4269 240° Southwest 410 472 40,000  Level Denver Center
01:12PM 38.5881 -109.5444 238° Southwest 407 468 40,000  Level Denver Center
01:12PM 38.5336 -109.6636 240° Southwest 406 467 40,000  Level Denver Center
01:13PM 38.4767 -109.7806 238° Southwest 405 466 40,000  Level Denver Center
01:14PM 38.4089 -109.9144 237° Southwest 402 463 40,000  Level Denver Center
01:15PM 38.3517 -110.0278 237° Southwest 399 459 40,000  Level Denver Center
01:17PM 38.2833 -110.1633 237° Southwest 404 465 40,000  Level Salt Lake Center
01:18PM 38.2158 -110.2972 237° Southwest 403 464 40,000  Level Salt Lake Center
01:19PM 38.1669 -110.3925 237° Southwest 404 465 40,000  Level Denver Center
01:20PM 38.0994 -110.5272 238° Southwest 405 466 40,000  Level Denver Center
01:21PM 38.0408 -110.6425 237° Southwest 405 466 40,000  Level Denver Center
01:22PM 37.9800 -110.7614 237° Southwest 404 465 40,000  Level Denver Center
01:23PM 37.9075 -110.9053 237° Southwest 405 466 40,000  Level Denver Center
01:24PM 37.8467 -111.0269 238° Southwest 407 468 40,000  Level Denver Center
01:25PM 37.7836 -111.1456 236° Southwest 406 467 40,000  Level Denver Center
01:26PM 37.7197 -111.2617 235° Southwest 405 466 40,000  Level Denver Center
01:27PM 37.6578 -111.3794 236° Southwest 404 465 40,000  Level Denver Center
01:28PM 37.5944 -111.4958 236° Southwest 402 463 40,000  Level Denver Center
01:29PM 37.5208 -111.6369 237° Southwest 401 461 40,000  Level Denver Center
01:30PM 37.4578 -111.7547 236° Southwest 404 465 40,000  Level Denver Center
01:31PM 37.3944 -111.8722 236° Southwest 404 465 40,000  Level Denver Center
01:32PM 37.3336 -111.9894 237° Southwest 401 461 40,000  Level Denver Center
01:33PM 37.2700 -112.1067 236° Southwest 399 459 40,000  Level Los Angeles Center
01:34PM 37.2100 -112.2258 238° Southwest 402 463 40,000  Level Los Angeles Center
01:35PM 37.1486 -112.3447 237° Southwest 404 465 40,000  Level Los Angeles Center
01:36PM 37.0728 -112.4856 236° Southwest 405 466 40,000  Level Los Angeles Center
01:37PM 37.0100 -112.6022 236° Southwest 404 465 40,000  Level Los Angeles Center
01:38PM 36.9478 -112.7189 236° Southwest 403 464 40,000  Level Los Angeles Center
01:39PM 36.8869 -112.8339 237° Southwest 399 459 40,000  Level Los Angeles Center
01:40PM 36.8269 -112.9497 237° Southwest 398 458 40,000  Level Los Angeles Center
01:41PM 36.7656 -113.0633 236° Southwest 395 455 40,000  Level Los Angeles Center
01:42PM 36.7061 -113.1781 237° Southwest 395 455 40,000  Level Los Angeles Center
01:43PM 36.6325 -113.3136 236° Southwest 395 455 40,000  Level Los Angeles Center
01:44PM 36.5694 -113.4247 235° Southwest 394 453 40,000  Level Los Angeles Center
01:45PM 36.5064 -113.5375 235° Southwest 396 456 40,000  Level Los Angeles Center
01:46PM 36.4411 -113.6517 235° Southwest 396 456 40,000  Level Los Angeles Center
01:48PM 36.3778 -113.7625 235° Southwest 393 452 40,000  Level Los Angeles Center
01:49PM 36.3133 -113.8728 234° Southwest 395 455 40,000  Level Los Angeles Center
01:50PM 36.2494 -113.9836 234° Southwest 394 453 40,000  Level Los Angeles Center
01:51PM 36.1697 -114.1147 233° Southwest 396 456 40,000  Level Los Angeles Center
01:52PM 36.1044 -114.2247 234° Southwest 395 455 40,000  Level Los Angeles Center
01:53PM 36.0422 -114.3347 235° Southwest 391 450 40,000 -240 Level Los Angeles Center
01:54PM 35.9769 -114.4458 234° Southwest 395 455 39,600 -780 Descending Los Angeles Center
01:55PM 35.9131 -114.5572 235° Southwest 396 456 38,500 -1,020 Descending Los Angeles Center
01:56PM 35.8500 -114.6689 235° Southwest 396 456 37,500 -1,020 Descending Los Angeles Center
01:57PM 35.7872 -114.7781 235° Southwest 390 449 36,500 -1,140 Descending Los Angeles Center
01:58PM 35.7094 -114.9081 234° Southwest 392 451 35,200 -1,140 Descending Los Angeles Center
01:59PM 35.6444 -115.0172 234° Southwest 392 451 34,200 -600 Descending Los Angeles Center
02:00PM 35.5794 -115.1303 235° Southwest 395 455 34,000 -120 Descending Los Angeles Center
02:01PM 35.5153 -115.2436 235° Southwest 399 459 34,000 -360 Level Los Angeles Center
02:02PM 35.4456 -115.3553 233° Southwest 405 466 33,300 -840 Descending Los Angeles Center
02:03PM 35.3733 -115.4647 231° Southwest 412 474 32,300 -960 Descending Los Angeles Center
02:04PM 35.3058 -115.5722 232° Southwest 412 474 31,300 -1,020 Descending Los Angeles Center
02:05PM 35.2125 -115.6947 227° Southwest 411 473 30,200 -1,020 Descending Los Angeles Center
02:06PM 35.1358 -115.7958 227° Southwest 408 470 29,200 -1,020 Descending Los Angeles Center
02:07PM 35.0567 -115.8978 227° Southwest 411 473 28,200 -1,020 Descending Los Angeles Center
02:08PM 34.9756 -116.0033 227° Southwest 422 486 27,200 -1,020 Descending Los Angeles Center
02:09PM 34.8928 -116.1097 227° Southwest 429 494 26,200 -1,020 Descending Los Angeles Center
02:10PM 34.8119 -116.2150 227° Southwest 427 491 25,200 -1,080 Descending Los Angeles Center
02:11PM 34.7969 -116.3822 264° West 428 493 24,000 -1,080 Descending Los Angeles Center
02:12PM 34.7928 -116.5272 268° West 431 496 23,000 -1,020 Descending Los Angeles Center
02:13PM 34.7808 -116.6664 264° West 418 481 22,000 -1,020 Descending Los Angeles Center
02:14PM 34.7683 -116.8044 264° West 413 475 21,000 -1,020 Descending Los Angeles Center
02:15PM 34.7572 -116.9425 264° West 411 473 20,000 -960 Descending Los Angeles Center
02:17PM 34.7483 -117.0794 266° West 406 467 19,000 -1,140 Descending Los Angeles Center
02:18PM 34.7361 -117.2406 265° West 400 460 17,700 -1,260 Descending Los Angeles Center
02:19PM 34.7242 -117.3703 264° West 388 447 16,500 -1,080 Descending Los Angeles Center
02:20PM 34.7111 -117.4997 263° West 384 442 15,500 -1,020 Descending Los Angeles Center
02:21PM 34.6964 -117.6283 262° West 382 440 14,400 -1,020 Descending Los Angeles Center
02:22PM 34.6800 -117.7531 261° West 373 429 13,400 -1,020 Descending Los Angeles Center
02:23PM 34.6600 -117.8767 259° West 373 429 12,300 -1,020 Descending Los Angeles Center
02:24PM 34.6389 -117.9939 258° West 359 413 11,300 -1,020 Descending Los Angeles Center
02:25PM 34.6122 -118.1256 256° West 335 386 10,200 -960 Descending Los Angeles Center
02:26PM 34.5953 -118.2103 256° West 292 336 9,400 -900 Descending Los Angeles Center
02:27PM 34.5747 -118.2994 254° West 277 319 8,400 -660 Descending Los Angeles Center
02:28PM 34.5531 -118.4089 257° West 278 320 8,100 -600 Descending Los Angeles Center
02:29PM 34.4992 -118.4733 225° Southwest 275 316 7,200 -1,020 Descending Los Angeles Center
02:30PM 34.4325 -118.5111 205° Southwest 268 308 6,100 -1,260 Descending Los Angeles Center
02:31PM 34.3608 -118.5069 177° South 254 292 4,700 -1,500 Descending Los Angeles Center
02:32PM 34.2975 -118.4989 174° South 240 276 3,100 -1,500 Descending Los Angeles Center
02:33PM 34.2436 -118.4944 176° South 181 208 1,600 -900 Descending Los Angeles Center
02:34PM 34.2100 -118.4914 176° South 158 182 1,300 -300 Descending Los Angeles Center
02:36PM 34.2098 -118.4900 180° South  Level Estimated